Guatay, CA (91931)

7:25 PM PST on December 03, 2016 (GMT -0800)
Omnis vir lupus | | Change Station

Elev 3743 ft 32.82 °N, 116.53 °W | Updated 1 minute ago

Clear
Clear
54.3 °F
Feels Like 54.3 °F
N
0.0
Wind Variable Wind from North
Gusts 0.0 mph

Today
High -- | Low -- °F
--% Chance of Precip.
Yesterday
High -- | Low -- °F
Precip. -- in
Pressure 30.02 in
Visibility -9999.0 miles
Clouds
Dew Point 14 °F
Humidity 20%
Rainfall 0.00 in
Snow Depth Not available.
6:32 AM 4:39 PM
Waxing Crescent, 19% visible
METAR KCZZ 040252Z AUTO VRB03KT 08/M12 A3003 RMK AO1 SLP165 T00781117 53009
Pressure 30.02 in
Visibility -9999.0 miles
Clouds
Dew Point 14 °F
Humidity 20%
Rainfall 0.00 in
Snow Depth Not available.
6:32 AM 4:39 PM
Waxing Crescent, 19% visible
METAR KCZZ 040252Z AUTO VRB03KT 08/M12 A3003 RMK AO1 SLP165 T00781117 53009

10-Day Weather Forecast

Almanac

Astronomy

Dec. 03, 2016 Rise Set
Actual Time
Civil Twilight
Nautical Twilight
Astronomical Twilight
Moon
Length of Visible Light
Length of Day
Tomorrow will be .
, % of the Moon is Illuminated

Today's Extremes

State Highs State Lows

Community

WunderPhotos

Upload Photos

1,955,570 photos uploaded!

WunderBlog® & News

Nearby

Air Quality

  Air Quality AQ Index Pollutant
Not available.

Snow Depth

Station Depth Elevation

Earthquake Activity

City Distance Mag. Time & Date
Minimum magnitude displayed is 2.5.

Coastal Water Temperatures

Place Temperature

Stations

Nearby Weather Stations

Station Location Temp. Windchill Dew Point Humidity Wind Precip. Elev Updated Type
                   

Watches & Warnings

There are currently no watches in effect.